createdAt,value
2023-02-13T00:02:24.136Z,12.15
2023-02-13T00:04:50.568Z,12.18
2023-02-13T00:07:16.922Z,12.85
2023-02-13T00:09:43.303Z,13.02
2023-02-13T00:12:10.058Z,12.90
2023-02-13T00:14:38.506Z,14.45
2023-02-13T00:17:05.987Z,11.60
2023-02-13T00:19:32.674Z,12.63
2023-02-13T00:21:59.114Z,12.60
2023-02-13T00:24:25.617Z,12.80
2023-02-13T00:26:52.084Z,12.30
2023-02-13T00:29:18.523Z,12.88
2023-02-13T00:31:45.034Z,14.23
2023-02-13T00:34:12.072Z,14.38
2023-02-13T00:36:38.454Z,14.23
2023-02-13T00:39:04.893Z,16.08
2023-02-13T00:41:31.258Z,14.68
2023-02-13T00:43:57.672Z,15.07
2023-02-13T00:46:24.105Z,15.85
2023-02-13T00:48:50.548Z,14.52
2023-02-13T00:51:16.950Z,15.95
2023-02-13T00:53:43.329Z,13.70
2023-02-13T00:56:09.734Z,14.75
2023-02-13T00:58:36.443Z,14.55
2023-02-13T01:01:03.114Z,16.10
2023-02-13T01:03:29.664Z,15.38
2023-02-13T01:05:57.985Z,16.83
2023-02-13T01:08:28.046Z,15.25
2023-02-13T01:10:54.789Z,14.10
2023-02-13T01:13:21.184Z,14.35
2023-02-13T01:15:48.357Z,14.82
2023-02-13T01:18:16.758Z,15.07
2023-02-13T01:20:44.326Z,14.38
2023-02-13T01:23:11.915Z,14.27
2023-02-13T01:25:42.264Z,13.75
2023-02-13T01:28:09.050Z,15.07
2023-02-13T01:30:36.664Z,15.98
2023-02-13T01:33:03.193Z,15.50
2023-02-13T01:35:29.678Z,15.23
2023-02-13T01:37:56.088Z,16.08
2023-02-13T01:40:23.507Z,16.25
2023-02-13T01:42:49.876Z,15.73
2023-02-13T01:45:22.760Z,16.55
2023-02-13T01:47:53.902Z,15.20
2023-02-13T01:50:37.631Z,15.57
2023-02-13T01:53:18.586Z,15.43
2023-02-13T01:56:00.416Z,16.30
2023-02-13T01:58:31.860Z,14.77
2023-02-13T02:00:59.619Z,16.27
2023-02-13T02:03:44.306Z,16.45
2023-02-13T02:06:18.549Z,15.93
2023-02-13T02:08:49.082Z,14.38
2023-02-13T02:11:42.332Z,16.27
2023-02-13T02:14:09.902Z,17.30
2023-02-13T02:16:36.295Z,16.42
2023-02-13T02:19:19.164Z,15.77
2023-02-13T02:22:10.730Z,13.93
2023-02-13T02:25:03.206Z,14.80
2023-02-13T02:28:06.031Z,13.82
2023-02-13T02:31:10.067Z,15.20
2023-02-13T02:33:49.729Z,13.70
2023-02-13T02:36:26.376Z,12.10
2023-02-13T02:39:17.983Z,14.75
2023-02-13T02:41:58.922Z,13.30
2023-02-13T02:44:41.777Z,13.75
2023-02-13T02:47:53.800Z,13.18
2023-02-13T02:50:40.502Z,13.25
2023-02-13T02:53:35.817Z,14.52
2023-02-13T02:56:14.216Z,13.82
2023-02-13T02:59:05.103Z,12.95
2023-02-13T03:01:53.827Z,13.15
2023-02-13T03:04:50.197Z,12.85
2023-02-13T03:07:19.075Z,12.68
2023-02-13T03:10:11.174Z,12.43
2023-02-13T03:13:34.974Z,12.82
2023-02-13T03:16:20.112Z,13.00
2023-02-13T03:19:10.728Z,13.23
2023-02-13T03:22:14.194Z,12.45
2023-02-13T03:25:34.102Z,13.23
2023-02-13T03:28:39.988Z,12.63
2023-02-13T03:31:27.339Z,12.82
2023-02-13T03:34:13.412Z,12.38
2023-02-13T03:37:17.893Z,12.77
2023-02-13T03:39:57.029Z,11.95
2023-02-13T03:42:43.102Z,12.30
2023-02-13T03:45:37.114Z,13.27
2023-02-13T03:48:09.517Z,11.48
2023-02-13T03:50:43.679Z,12.18
2023-02-13T03:53:14.367Z,12.95
2023-02-13T03:56:04.705Z,12.30
2023-02-13T03:59:01.537Z,12.63
2023-02-13T04:01:38.440Z,12.57
2023-02-13T04:04:26.492Z,12.18
2023-02-13T04:06:57.653Z,11.75
2023-02-13T04:09:26.380Z,12.32
2023-02-13T04:11:59.218Z,10.73
2023-02-13T04:14:34.308Z,11.70
2023-02-13T04:17:09.396Z,11.73
2023-02-13T04:19:37.089Z,11.65
2023-02-13T04:22:03.530Z,12.20
2023-02-13T04:24:31.400Z,11.98
2023-02-13T04:26:58.041Z,11.70
2023-02-13T04:29:26.090Z,11.38
2023-02-13T04:31:52.792Z,11.57
2023-02-13T04:34:19.204Z,11.73
2023-02-13T04:36:45.597Z,11.18
2023-02-13T04:39:12.272Z,11.32
2023-02-13T04:41:38.694Z,11.20
2023-02-13T04:44:05.251Z,10.90
2023-02-13T04:46:31.628Z,10.98
2023-02-13T04:48:58.034Z,10.60
2023-02-13T04:51:24.402Z,10.63
2023-02-13T04:53:50.770Z,11.00
2023-02-13T04:56:18.932Z,10.70
2023-02-13T04:58:46.154Z,11.32
2023-02-13T05:01:14.314Z,11.40
2023-02-13T05:03:40.724Z,11.35
2023-02-13T05:06:07.289Z,11.35
2023-02-13T05:08:34.305Z,10.80
2023-02-13T05:11:00.744Z,11.30
2023-02-13T05:13:27.206Z,12.00
2023-02-13T05:15:53.663Z,11.93
2023-02-13T05:18:20.099Z,11.75
2023-02-13T05:21:06.448Z,12.50
2023-02-13T05:23:32.921Z,12.02
2023-02-13T05:25:59.625Z,12.25
2023-02-13T05:28:44.715Z,11.95
2023-02-13T05:31:11.262Z,11.70
2023-02-13T05:33:37.788Z,12.15
2023-02-13T05:36:04.400Z,10.63
2023-02-13T05:38:30.766Z,11.75
2023-02-13T05:41:00.378Z,11.80
2023-02-13T05:43:28.001Z,10.65
2023-02-13T05:46:12.862Z,12.13
2023-02-13T05:48:39.255Z,11.00
2023-02-13T05:51:05.887Z,11.27
2023-02-13T05:53:35.137Z,11.07
2023-02-13T05:56:02.606Z,11.52
2023-02-13T05:58:29.478Z,12.27
2023-02-13T06:00:58.640Z,12.80
2023-02-13T06:03:26.993Z,12.95
2023-02-13T06:05:54.440Z,11.75
2023-02-13T06:08:21.302Z,11.65
2023-02-13T06:10:48.409Z,11.18
2023-02-13T06:13:15.534Z,11.98
2023-02-13T06:15:42.051Z,11.57
2023-02-13T06:18:08.950Z,12.07
2023-02-13T06:20:36.022Z,12.02
2023-02-13T06:23:02.425Z,10.50
2023-02-13T06:25:28.785Z,12.80
2023-02-13T06:27:55.966Z,11.23
2023-02-13T06:30:24.842Z,11.90
2023-02-13T06:32:51.235Z,11.75
2023-02-13T06:35:20.488Z,11.68
2023-02-13T06:37:48.832Z,11.52
2023-02-13T06:40:16.298Z,12.05
2023-02-13T06:42:43.811Z,11.85
2023-02-13T06:45:10.436Z,12.07
2023-02-13T06:47:40.237Z,11.43
2023-02-13T06:50:07.210Z,11.40
2023-02-13T06:52:34.874Z,11.18
2023-02-13T06:55:01.436Z,10.98
2023-02-13T06:57:29.883Z,13.05
2023-02-13T06:59:56.254Z,12.65
2023-02-13T07:02:22.618Z,11.43
2023-02-13T07:04:49.054Z,12.05
2023-02-13T07:07:15.476Z,12.82
2023-02-13T07:09:41.870Z,14.13
2023-02-13T07:12:08.232Z,13.07
2023-02-13T07:14:34.590Z,12.63
2023-02-13T07:17:01.695Z,11.95
2023-02-13T07:19:28.074Z,12.75
2023-02-13T07:21:54.475Z,13.05
2023-02-13T07:24:20.874Z,13.65
2023-02-13T07:26:47.240Z,13.40
2023-02-13T07:29:13.692Z,14.57
2023-02-13T07:31:40.281Z,14.18
2023-02-13T07:34:07.641Z,12.52
2023-02-13T07:36:34.577Z,13.23
2023-02-13T07:39:00.963Z,13.43
2023-02-13T07:41:27.650Z,13.38
2023-02-13T07:43:54.486Z,12.55
2023-02-13T07:46:21.072Z,13.30
2023-02-13T07:48:47.591Z,12.73
2023-02-13T07:51:14.151Z,13.13
2023-02-13T07:53:40.591Z,13.38
2023-02-13T07:56:07.438Z,13.98
2023-02-13T07:58:33.965Z,14.15
2023-02-13T08:01:06.695Z,13.32
2023-02-13T08:03:33.073Z,13.93
2023-02-13T08:05:59.743Z,13.98
2023-02-13T08:08:26.438Z,14.45
2023-02-13T08:11:12.042Z,12.82
2023-02-13T08:13:38.502Z,14.32
2023-02-13T08:16:04.968Z,12.63
2023-02-13T08:18:31.387Z,13.18
2023-02-13T08:20:57.796Z,13.15
2023-02-13T08:23:24.368Z,13.73
2023-02-13T08:25:50.828Z,13.63
2023-02-13T08:28:17.465Z,13.57
2023-02-13T08:30:44.045Z,13.93
2023-02-13T08:33:10.525Z,13.02
2023-02-13T08:35:36.925Z,12.50
2023-02-13T08:38:04.669Z,13.88
2023-02-13T08:40:32.023Z,12.95
2023-02-13T08:43:06.207Z,14.15
2023-02-13T08:45:33.849Z,14.57
2023-02-13T08:48:01.139Z,13.60
2023-02-13T08:50:37.056Z,13.77
2023-02-13T08:53:09.832Z,13.10
2023-02-13T08:55:39.673Z,13.32
2023-02-13T08:58:06.029Z,13.35
2023-02-13T09:00:32.505Z,14.57
2023-02-13T09:03:03.699Z,13.48
2023-02-13T09:05:31.657Z,13.20
2023-02-13T09:08:03.038Z,13.13
2023-02-13T09:10:30.807Z,13.32
2023-02-13T09:12:57.181Z,13.25
2023-02-13T09:15:23.533Z,13.48
2023-02-13T09:17:50.373Z,13.40
2023-02-13T09:20:16.821Z,13.95
2023-02-13T09:22:43.177Z,13.32
2023-02-13T09:25:09.903Z,12.85
2023-02-13T09:27:38.933Z,13.23
2023-02-13T09:30:07.661Z,13.30
2023-02-13T09:32:34.180Z,13.45
2023-02-13T09:35:00.556Z,12.68
2023-02-13T09:37:27.597Z,13.70
2023-02-13T09:39:54.002Z,13.55
2023-02-13T09:42:36.796Z,17.50
2023-02-13T09:45:06.804Z,15.25
2023-02-13T09:47:39.633Z,13.73
2023-02-13T09:50:08.007Z,13.52
2023-02-13T09:52:37.104Z,14.90
2023-02-13T09:55:18.639Z,13.82
2023-02-13T09:58:03.868Z,14.10
2023-02-13T10:00:41.593Z,13.55
2023-02-13T10:03:29.526Z,14.25
2023-02-13T10:06:24.328Z,13.77
2023-02-13T10:09:12.655Z,13.30
2023-02-13T10:11:55.058Z,12.85
2023-02-13T10:14:45.206Z,13.20
2023-02-13T10:17:17.526Z,12.18
2023-02-13T10:19:50.004Z,13.80
2023-02-13T10:22:23.486Z,13.38
2023-02-13T10:25:02.237Z,14.63
2023-02-13T10:27:36.073Z,13.20
2023-02-13T10:30:12.846Z,13.90
2023-02-13T10:33:19.402Z,14.70
2023-02-13T10:36:02.539Z,13.73
2023-02-13T10:38:34.350Z,14.70
2023-02-13T10:41:05.980Z,13.43
2023-02-13T10:43:47.940Z,14.05
2023-02-13T10:46:33.558Z,13.90
2023-02-13T10:49:27.541Z,13.82
2023-02-13T10:52:21.566Z,12.95
2023-02-13T10:54:54.005Z,13.90
2023-02-13T10:57:28.306Z,13.40
2023-02-13T11:00:14.615Z,12.98
2023-02-13T11:02:41.324Z,13.60
2023-02-13T11:05:16.873Z,12.57
2023-02-13T11:07:46.727Z,13.15
2023-02-13T11:10:25.478Z,14.10
2023-02-13T11:12:53.156Z,13.02
2023-02-13T11:15:31.372Z,12.57
2023-02-13T11:18:14.725Z,14.20
2023-02-13T11:20:47.849Z,14.93
2023-02-13T11:23:29.263Z,14.07
2023-02-13T11:25:59.747Z,13.05
2023-02-13T11:28:29.362Z,13.85
2023-02-13T11:31:11.486Z,14.48
2023-02-13T11:33:39.257Z,14.68
2023-02-13T11:36:08.493Z,14.93
2023-02-13T11:38:35.335Z,14.93
2023-02-13T11:41:25.427Z,15.25
2023-02-13T11:44:01.616Z,15.38
2023-02-13T11:46:53.808Z,15.35
2023-02-13T11:49:29.632Z,15.95
2023-02-13T11:52:00.204Z,15.95
2023-02-13T11:54:34.765Z,15.48
2023-02-13T11:57:05.496Z,17.35
2023-02-13T11:59:43.809Z,16.70
2023-02-13T12:02:23.674Z,15.55
2023-02-13T12:04:52.452Z,16.42
2023-02-13T12:07:27.785Z,17.05
2023-02-13T12:10:02.806Z,16.08
2023-02-13T12:12:35.455Z,16.13
2023-02-13T12:15:17.835Z,27.02
2023-02-13T12:17:47.126Z,20.60
2023-02-13T12:20:17.858Z,18.50
2023-02-13T12:22:56.542Z,17.08
2023-02-13T12:25:35.095Z,19.02
2023-02-13T12:28:10.533Z,18.02
2023-02-13T12:31:02.107Z,19.15
2023-02-13T12:34:05.599Z,18.13
2023-02-13T12:36:36.221Z,18.63
2023-02-13T12:39:08.528Z,18.60
2023-02-13T12:41:44.277Z,18.50
2023-02-13T12:44:23.474Z,18.35
2023-02-13T12:47:10.598Z,18.27
2023-02-13T12:49:49.547Z,20.10
2023-02-13T12:52:24.802Z,19.52
2023-02-13T12:55:15.528Z,19.98
2023-02-13T12:58:12.231Z,18.17
2023-02-13T13:00:52.435Z,18.65
2023-02-13T13:03:28.644Z,19.02
2023-02-13T13:06:12.776Z,20.98
2023-02-13T13:08:48.332Z,19.52
2023-02-13T13:11:50.306Z,20.30
2023-02-13T13:14:42.636Z,19.85
2023-02-13T13:17:18.211Z,20.08
2023-02-13T13:20:01.580Z,21.48
2023-02-13T13:22:46.188Z,19.70
2023-02-13T13:25:18.168Z,19.58
2023-02-13T13:27:49.186Z,19.98
2023-02-13T13:30:33.238Z,19.95
2023-02-13T13:33:14.316Z,21.15
2023-02-13T13:35:53.088Z,20.17
2023-02-13T13:38:43.505Z,19.83
2023-02-13T13:41:30.755Z,18.98
2023-02-13T13:44:38.174Z,19.60
2023-02-13T13:47:29.667Z,19.25
2023-02-13T13:50:00.842Z,20.40
2023-02-13T13:52:32.873Z,20.45
2023-02-13T13:55:02.409Z,20.45
2023-02-13T13:57:41.046Z,20.02
2023-02-13T14:00:07.620Z,20.52
2023-02-13T14:02:47.056Z,20.65
2023-02-13T14:05:13.358Z,19.48
2023-02-13T14:07:41.540Z,19.35
2023-02-13T14:10:48.820Z,19.98
2023-02-13T14:13:33.926Z,18.73
2023-02-13T14:16:01.684Z,19.67
2023-02-13T14:18:29.941Z,20.52
2023-02-13T14:21:00.548Z,20.90
2023-02-13T14:23:42.827Z,20.25
2023-02-13T14:26:15.314Z,19.38
2023-02-13T14:28:50.861Z,20.65
2023-02-13T14:31:33.367Z,20.75
2023-02-13T14:34:12.190Z,19.73
2023-02-13T14:36:41.945Z,19.80
2023-02-13T14:39:28.440Z,21.15
2023-02-13T14:41:54.796Z,20.30
2023-02-13T14:44:32.309Z,21.27
2023-02-13T14:47:01.678Z,20.73
2023-02-13T14:49:35.822Z,21.55
2023-02-13T14:52:05.812Z,21.98
2023-02-13T14:54:42.295Z,21.40
2023-02-13T14:57:31.539Z,21.40
2023-02-13T15:00:45.295Z,21.85
2023-02-13T15:03:40.977Z,21.10
2023-02-13T15:06:39.480Z,21.58
2023-02-13T15:09:22.638Z,20.20
2023-02-13T15:11:49.615Z,23.70
2023-02-13T15:14:32.544Z,19.63
2023-02-13T15:17:12.442Z,23.15
2023-02-13T15:19:44.880Z,20.40
2023-02-13T15:22:20.141Z,21.80
2023-02-13T15:24:49.387Z,21.85
2023-02-13T15:27:28.571Z,22.20
2023-02-13T15:29:54.887Z,22.05
2023-02-13T15:32:27.758Z,25.15
2023-02-13T15:34:54.154Z,22.77
2023-02-13T15:37:32.245Z,22.05
2023-02-13T15:40:25.438Z,21.45
2023-02-13T15:42:56.739Z,21.00
2023-02-13T15:45:26.044Z,22.63
2023-02-13T15:47:53.727Z,22.45
2023-02-13T15:50:30.898Z,22.48
2023-02-13T15:52:58.451Z,20.98
2023-02-13T15:55:28.240Z,20.85
2023-02-13T15:57:57.381Z,21.17
2023-02-13T16:00:34.216Z,22.23
2023-02-13T16:03:03.400Z,20.65
2023-02-13T16:05:40.664Z,22.58
2023-02-13T16:08:30.493Z,22.58
2023-02-13T16:11:34.375Z,20.67
2023-02-13T16:14:21.025Z,20.38
2023-02-13T16:16:52.786Z,21.58
2023-02-13T16:19:34.190Z,21.73
2023-02-13T16:22:06.121Z,20.70
2023-02-13T16:24:33.085Z,20.70
2023-02-13T16:27:00.535Z,20.73
2023-02-13T16:29:27.424Z,20.30
2023-02-13T16:32:02.821Z,20.27
2023-02-13T16:34:30.841Z,19.05
2023-02-13T16:37:00.408Z,18.70
2023-02-13T16:39:30.298Z,18.52
2023-02-13T16:42:01.360Z,17.92
2023-02-13T16:44:32.576Z,17.65
2023-02-13T16:47:03.073Z,17.88
2023-02-13T16:49:37.380Z,17.05
2023-02-13T16:52:26.758Z,16.65
2023-02-13T16:55:00.739Z,18.30
2023-02-13T16:57:33.034Z,17.58
2023-02-13T17:00:22.277Z,17.70
2023-02-13T17:02:50.758Z,19.00
2023-02-13T17:05:23.014Z,17.48
2023-02-13T17:07:52.813Z,17.48
2023-02-13T17:10:31.061Z,18.58
2023-02-13T17:13:01.292Z,18.63
2023-02-13T17:15:29.938Z,18.25
2023-02-13T17:17:56.789Z,19.73
2023-02-13T17:20:26.320Z,20.75
2023-02-13T17:23:14.184Z,17.77
2023-02-13T17:25:41.164Z,19.08
2023-02-13T17:28:17.067Z,22.23
2023-02-13T17:30:44.434Z,19.42
2023-02-13T17:33:14.794Z,19.23
2023-02-13T17:35:41.213Z,19.83
2023-02-13T17:38:09.476Z,18.45
2023-02-13T17:40:36.020Z,17.52
2023-02-13T17:43:03.014Z,18.05
2023-02-13T17:45:32.067Z,17.98
2023-02-13T17:47:58.766Z,16.80
2023-02-13T17:50:27.286Z,16.48
2023-02-13T17:52:54.382Z,18.10
2023-02-13T17:55:27.018Z,17.95
2023-02-13T17:57:58.367Z,16.75
2023-02-13T18:00:28.028Z,16.73
2023-02-13T18:02:55.254Z,17.83
2023-02-13T18:05:21.860Z,19.27
2023-02-13T18:07:48.749Z,19.00
2023-02-13T18:10:28.016Z,18.15
2023-02-13T18:13:04.454Z,17.52
2023-02-13T18:15:35.485Z,19.00
2023-02-13T18:18:01.873Z,18.90
2023-02-13T18:20:28.710Z,19.63
2023-02-13T18:22:55.165Z,18.83
2023-02-13T18:25:21.864Z,18.77
2023-02-13T18:27:48.564Z,19.52
2023-02-13T18:30:18.304Z,19.20
2023-02-13T18:32:45.025Z,20.42
2023-02-13T18:35:11.658Z,20.70
2023-02-13T18:37:39.110Z,21.05
2023-02-13T18:40:07.976Z,21.60
2023-02-13T18:42:35.853Z,20.02
2023-02-13T18:45:03.137Z,19.27
2023-02-13T18:47:29.484Z,21.30
2023-02-13T18:49:55.839Z,20.45
2023-02-13T18:52:22.224Z,21.67
2023-02-13T18:54:48.686Z,21.50
2023-02-13T18:57:15.144Z,21.80
2023-02-13T18:59:41.536Z,20.65
2023-02-13T19:02:09.541Z,21.05
2023-02-13T19:04:35.966Z,22.08
2023-02-13T19:07:02.469Z,21.42
2023-02-13T19:09:28.856Z,21.10
2023-02-13T19:11:55.229Z,20.92
2023-02-13T19:14:22.590Z,22.52
2023-02-13T19:16:49.078Z,21.92
2023-02-13T19:19:15.433Z,20.90
2023-02-13T19:21:41.869Z,21.10
2023-02-13T19:24:09.592Z,20.02
2023-02-13T19:26:36.730Z,20.13
2023-02-13T19:29:04.104Z,20.58
2023-02-13T19:31:32.353Z,20.27
2023-02-13T19:34:00.430Z,20.70
2023-02-13T19:36:28.693Z,22.13
2023-02-13T19:38:56.992Z,22.30
2023-02-13T19:41:23.560Z,21.48
2023-02-13T19:43:51.166Z,22.20
2023-02-13T19:46:26.529Z,22.15
2023-02-13T19:48:53.133Z,22.38
2023-02-13T19:51:21.759Z,22.35
2023-02-13T19:53:48.801Z,21.60
2023-02-13T19:56:15.201Z,21.90
2023-02-13T19:58:42.911Z,22.25
2023-02-13T20:01:13.925Z,23.10
2023-02-13T20:03:41.646Z,23.33
2023-02-13T20:06:11.541Z,20.17
2023-02-13T20:08:38.459Z,22.05
2023-02-13T20:11:07.676Z,20.92
2023-02-13T20:13:34.328Z,24.38
2023-02-13T20:16:05.364Z,24.40
2023-02-13T20:18:33.609Z,23.42
2023-02-13T20:21:00.292Z,25.55
2023-02-13T20:23:26.857Z,23.15
2023-02-13T20:25:53.197Z,23.95
2023-02-13T20:28:19.554Z,21.75
2023-02-13T20:30:46.053Z,23.50
2023-02-13T20:33:12.467Z,23.73
2023-02-13T20:35:38.839Z,23.42
2023-02-13T20:38:05.223Z,24.33
2023-02-13T20:40:31.658Z,26.85
2023-02-13T20:42:58.053Z,23.83
2023-02-13T20:45:24.475Z,23.90
2023-02-13T20:47:50.900Z,21.05
2023-02-13T20:50:17.439Z,22.92
2023-02-13T20:52:43.806Z,22.48
2023-02-13T20:55:10.229Z,22.73
2023-02-13T20:57:36.798Z,23.08
2023-02-13T21:00:05.373Z,22.38
2023-02-13T21:02:32.022Z,22.90
2023-02-13T21:04:58.456Z,23.30
2023-02-13T21:07:24.911Z,24.40
2023-02-13T21:09:51.309Z,24.15
2023-02-13T21:12:17.811Z,23.95
2023-02-13T21:14:44.178Z,22.60
2023-02-13T21:17:10.622Z,23.17
2023-02-13T21:19:37.025Z,22.88
2023-02-13T21:22:12.603Z,22.83
2023-02-13T21:24:42.925Z,21.60
2023-02-13T21:27:16.009Z,20.00
2023-02-13T21:29:42.400Z,20.77
2023-02-13T21:32:08.843Z,23.90
2023-02-13T21:34:35.564Z,22.95
2023-02-13T21:37:02.202Z,24.75
2023-02-13T21:39:28.589Z,24.48
2023-02-13T21:41:55.007Z,22.90
2023-02-13T21:44:21.612Z,23.58
2023-02-13T21:46:48.151Z,24.00
2023-02-13T21:49:17.049Z,24.88
2023-02-13T21:51:43.558Z,24.67
2023-02-13T21:54:10.978Z,24.27
2023-02-13T21:56:40.501Z,23.55
2023-02-13T21:59:08.462Z,23.10
2023-02-13T22:01:54.459Z,24.08
2023-02-13T22:04:21.215Z,23.58
2023-02-13T22:06:50.911Z,22.27
2023-02-13T22:09:19.000Z,24.67
2023-02-13T22:11:45.657Z,23.33
2023-02-13T22:14:16.841Z,23.40
2023-02-13T22:16:44.294Z,23.65
2023-02-13T22:19:13.457Z,23.85
2023-02-13T22:21:39.852Z,24.10
2023-02-13T22:24:06.329Z,24.40
2023-02-13T22:26:35.836Z,23.42
2023-02-13T22:29:08.317Z,23.20
2023-02-13T22:31:35.533Z,21.83
2023-02-13T22:34:04.435Z,21.38
2023-02-13T22:36:33.441Z,22.10
2023-02-13T22:38:59.881Z,24.67
2023-02-13T22:41:27.654Z,21.35
2023-02-13T22:43:54.389Z,24.52
2023-02-13T22:46:23.759Z,24.58
2023-02-13T22:48:52.315Z,24.58
2023-02-13T22:51:21.736Z,23.42
2023-02-13T22:53:48.462Z,22.55
2023-02-13T22:56:15.469Z,23.33
2023-02-13T22:58:41.836Z,24.13
2023-02-13T23:01:13.555Z,24.42
2023-02-13T23:03:40.911Z,25.35
2023-02-13T23:06:09.150Z,23.98
2023-02-13T23:08:36.281Z,23.10
2023-02-13T23:11:26.646Z,25.05
2023-02-13T23:13:53.260Z,22.98
2023-02-13T23:16:19.810Z,23.67
2023-02-13T23:18:54.331Z,24.40
2023-02-13T23:21:21.271Z,23.10
2023-02-13T23:23:48.031Z,24.13
2023-02-13T23:26:14.989Z,23.73
2023-02-13T23:28:41.770Z,23.25
2023-02-13T23:31:08.251Z,24.30
2023-02-13T23:33:34.675Z,24.77
2023-02-13T23:36:01.029Z,24.48
2023-02-13T23:38:27.474Z,23.92
2023-02-13T23:40:53.893Z,23.15
2023-02-13T23:43:20.243Z,24.88
2023-02-13T23:45:46.645Z,25.00
2023-02-13T23:48:13.258Z,25.20
2023-02-13T23:50:40.158Z,24.48
2023-02-13T23:53:06.550Z,22.70
2023-02-13T23:55:32.926Z,25.10
2023-02-13T23:57:59.268Z,23.52
